< < Back
Terminal Aerodrome Forecast


Current Version              Previous Versions:   1  2  3  4  5  6  7  8  9  

Terminal Aerodrome Forecast

118
FTUS44 KMRX 300526
TAFTYS
TAF
KTYS 300526Z 3006/3106 VRB03KT P6SM SKC
     FM301500 01006KT P6SM FEW050 SCT250
     FM310100 VRB02KT P6SM SCT250=



Latest METAR

988
SAUS80 KWBC 301100 RRA
MTRTYS
METAR KTYS 301053Z 00000KT 10SM CLR 13/12 A3010 RMK AO2 SLP186
T01280117


USA.gov is the U.S. government's official web portal to all federal, state and local government web resources and services.